Terminal Aerodrome Forecast
Issued by NWS

Home | Current Version | Previous Version | Text Only | Print | Product List | Glossary On
Versions: 1 2 3 4 5 6 7 8 9 10 11 12 13 14 15 16 17 18 19 20 21 22 23 24
000
FTUS42 KCAE 070800 AAA
TAFCUB
TAF AMD
KCUB 070832Z 0709/0806 00000KT P6SM OVC250
     FM071400 03008KT P6SM SCT100 BKN250
     FM071700 01008G18KT P6SM BKN150
     FM072300 VRB04KT P6SM OVC100=

USA.gov is the U.S. government's official web portal to all federal, state and local government web resources and services.